createdAt,value
2017-08-19T00:00:27.687Z,19.90
2017-08-19T00:02:53.817Z,20.00
2017-08-19T00:05:19.869Z,19.90
2017-08-19T00:07:45.924Z,19.90
2017-08-19T00:10:12.008Z,19.90
2017-08-19T00:12:38.086Z,19.90
2017-08-19T00:15:04.956Z,19.90
2017-08-19T00:17:31.044Z,19.90
2017-08-19T00:19:57.216Z,19.90
2017-08-19T00:22:23.276Z,19.80
2017-08-19T00:24:49.523Z,19.90
2017-08-19T00:27:15.682Z,19.80
2017-08-19T00:29:42.462Z,19.70
2017-08-19T00:32:08.552Z,19.70
2017-08-19T00:34:35.340Z,19.90
2017-08-19T00:37:01.388Z,19.80
2017-08-19T00:39:27.470Z,19.60
2017-08-19T00:41:53.538Z,19.70
2017-08-19T00:44:19.573Z,19.70
2017-08-19T00:46:45.666Z,19.60
2017-08-19T00:49:11.754Z,19.70
2017-08-19T00:51:37.814Z,19.80
2017-08-19T00:54:03.878Z,19.70
2017-08-19T00:56:30.874Z,19.70
2017-08-19T00:58:57.041Z,19.70
2017-08-19T01:01:23.207Z,19.50
2017-08-19T01:03:49.434Z,19.40
2017-08-19T01:06:15.564Z,19.50
2017-08-19T01:08:41.657Z,19.50
2017-08-19T01:11:07.728Z,19.40
2017-08-19T01:13:33.768Z,19.50
2017-08-19T01:15:59.964Z,19.50
2017-08-19T01:18:26.047Z,19.50
2017-08-19T01:20:52.088Z,19.60
2017-08-19T01:23:18.150Z,19.50
2017-08-19T01:26:02.849Z,19.50
2017-08-19T01:28:28.935Z,19.60
2017-08-19T01:30:54.994Z,19.60
2017-08-19T01:33:21.041Z,19.60
2017-08-19T01:35:47.250Z,19.40
2017-08-19T01:38:13.309Z,19.30
2017-08-19T01:40:40.076Z,19.00
2017-08-19T01:43:06.176Z,19.00
2017-08-19T01:45:33.001Z,18.70
2017-08-19T01:47:59.042Z,18.70
2017-08-19T01:50:25.858Z,18.60
2017-08-19T01:52:51.931Z,18.60
2017-08-19T01:55:17.996Z,18.60
2017-08-19T01:57:44.071Z,18.60
2017-08-19T02:00:10.891Z,18.60
2017-08-19T02:02:36.928Z,18.50
2017-08-19T02:05:03.733Z,18.40
2017-08-19T02:07:29.766Z,18.30
2017-08-19T02:09:55.846Z,18.40
2017-08-19T02:12:21.912Z,18.40
2017-08-19T02:14:47.954Z,18.40
2017-08-19T02:17:14.013Z,18.40
2017-08-19T02:19:40.076Z,18.40
2017-08-19T02:22:06.137Z,18.60
2017-08-19T02:24:32.184Z,18.60
2017-08-19T02:26:58.266Z,18.60
2017-08-19T02:29:24.352Z,18.70
2017-08-19T02:31:50.392Z,18.70
2017-08-19T02:34:16.564Z,18.70
2017-08-19T02:36:42.605Z,18.80
2017-08-19T02:39:09.381Z,18.80
2017-08-19T02:41:35.461Z,18.80
2017-08-19T02:44:01.509Z,18.80
2017-08-19T02:46:27.549Z,18.90
2017-08-19T02:48:53.615Z,18.90
2017-08-19T02:51:19.682Z,18.50
2017-08-19T02:53:45.735Z,18.60
2017-08-19T02:56:11.812Z,18.60
2017-08-19T02:58:38.594Z,18.70
2017-08-19T03:01:04.642Z,18.70
2017-08-19T03:03:30.882Z,18.70
2017-08-19T03:05:56.921Z,18.60
2017-08-19T03:08:22.973Z,18.40
2017-08-19T03:10:49.042Z,18.30
2017-08-19T03:13:15.094Z,18.40
2017-08-19T03:15:41.137Z,18.30
2017-08-19T03:18:07.940Z,18.50
2017-08-19T03:20:33.963Z,18.40
2017-08-19T03:23:00.026Z,18.40
2017-08-19T03:25:26.840Z,18.40
2017-08-19T03:27:52.878Z,18.40
2017-08-19T03:30:18.934Z,18.40
2017-08-19T03:32:45.030Z,18.30
2017-08-19T03:35:11.072Z,18.20
2017-08-19T03:37:37.861Z,18.20
2017-08-19T03:40:03.974Z,18.10
2017-08-19T03:42:30.029Z,18.10
2017-08-19T03:44:56.074Z,18.30
2017-08-19T03:47:22.169Z,18.40
2017-08-19T03:49:48.204Z,18.40
2017-08-19T03:52:14.277Z,18.50
2017-08-19T03:54:40.359Z,18.60
2017-08-19T03:57:06.396Z,18.60
2017-08-19T03:59:33.190Z,18.60
2017-08-19T04:01:59.253Z,18.60
2017-08-19T04:04:25.331Z,18.60
2017-08-19T04:06:51.389Z,18.60
2017-08-19T04:09:17.485Z,18.60
2017-08-19T04:11:43.538Z,18.60
2017-08-19T04:14:09.585Z,18.60
2017-08-19T04:16:35.669Z,18.70
2017-08-19T04:19:01.705Z,18.60
2017-08-19T04:21:27.805Z,18.60
2017-08-19T04:23:53.951Z,18.60
2017-08-19T04:26:19.975Z,18.70
2017-08-19T04:28:46.011Z,18.70
2017-08-19T04:31:12.101Z,18.60
2017-08-19T04:33:38.153Z,18.60
2017-08-19T04:36:04.208Z,18.60
2017-08-19T04:38:30.273Z,18.70
2017-08-19T04:40:56.326Z,18.60
2017-08-19T04:43:22.387Z,18.50
2017-08-19T04:45:48.461Z,18.50
2017-08-19T04:48:14.497Z,18.40
2017-08-19T04:50:40.541Z,18.30
2017-08-19T04:53:06.605Z,18.10
2017-08-19T04:55:32.701Z,18.10
2017-08-19T04:57:58.736Z,18.00
2017-08-19T05:00:24.806Z,18.00
2017-08-19T05:02:50.843Z,18.10
2017-08-19T05:05:16.889Z,18.00
2017-08-19T05:07:42.960Z,17.90
2017-08-19T05:10:08.999Z,18.00
2017-08-19T05:12:35.071Z,18.00
2017-08-19T05:15:01.162Z,18.10
2017-08-19T05:17:27.215Z,18.10
2017-08-19T05:19:53.278Z,18.20
2017-08-19T05:22:20.110Z,18.40
2017-08-19T05:24:46.897Z,18.60
2017-08-19T05:27:12.937Z,18.60
2017-08-19T05:29:39.013Z,18.60
2017-08-19T05:32:05.823Z,18.50
2017-08-19T05:34:31.877Z,18.50
2017-08-19T05:36:58.803Z,18.70
2017-08-19T05:39:24.867Z,18.60
2017-08-19T05:41:50.949Z,18.70
2017-08-19T05:44:17.035Z,18.60
2017-08-19T05:46:43.099Z,18.70
2017-08-19T05:49:09.133Z,18.90
2017-08-19T05:51:42.143Z,19.00
2017-08-19T05:54:08.194Z,18.80
2017-08-19T05:56:34.246Z,18.70
2017-08-19T05:59:00.318Z,18.70
2017-08-19T06:01:26.373Z,18.60
2017-08-19T06:03:52.433Z,18.50
2017-08-19T06:06:18.542Z,18.40
2017-08-19T06:08:44.610Z,18.30
2017-08-19T06:11:11.392Z,18.40
2017-08-19T06:13:37.470Z,18.40
2017-08-19T06:16:04.276Z,18.40
2017-08-19T06:18:30.329Z,18.40
2017-08-19T06:20:56.750Z,18.60
2017-08-19T06:23:22.801Z,18.80
2017-08-19T06:25:48.844Z,18.90
2017-08-19T06:28:14.928Z,18.70
2017-08-19T06:30:41.069Z,18.70
2017-08-19T06:33:07.897Z,18.90
2017-08-19T06:35:33.985Z,18.90
2017-08-19T06:38:00.014Z,19.00
2017-08-19T06:40:26.074Z,18.90
2017-08-19T06:42:52.238Z,18.90
2017-08-19T06:45:18.357Z,19.00
2017-08-19T06:47:44.487Z,19.00
2017-08-19T06:50:10.545Z,19.00
2017-08-19T06:52:36.594Z,19.10
2017-08-19T06:55:02.654Z,19.10
2017-08-19T06:57:29.427Z,19.10
2017-08-19T06:59:55.487Z,19.10
2017-08-19T07:02:21.513Z,19.00
2017-08-19T07:04:47.727Z,19.10
2017-08-19T07:07:13.965Z,19.10
2017-08-19T07:09:40.020Z,19.20
2017-08-19T07:12:06.827Z,19.30
2017-08-19T07:14:32.855Z,19.30
2017-08-19T07:16:59.423Z,19.30
2017-08-19T07:19:25.457Z,19.30
2017-08-19T07:21:52.237Z,19.30
2017-08-19T07:24:18.330Z,19.30
2017-08-19T07:26:44.387Z,19.40
2017-08-19T07:29:10.434Z,19.50
2017-08-19T07:31:36.519Z,19.50
2017-08-19T07:34:02.572Z,19.40
2017-08-19T07:36:28.627Z,19.40
2017-08-19T07:38:54.721Z,19.40
2017-08-19T07:41:20.754Z,19.40
2017-08-19T07:43:46.791Z,19.50
2017-08-19T07:46:12.893Z,19.50
2017-08-19T07:48:38.947Z,19.60
2017-08-19T07:51:05.000Z,19.50
2017-08-19T07:53:31.107Z,19.60
2017-08-19T07:55:57.907Z,19.60
2017-08-19T07:58:23.970Z,19.60
2017-08-19T08:00:50.063Z,19.70
2017-08-19T08:03:16.373Z,19.70
2017-08-19T08:05:42.472Z,19.80
2017-08-19T08:08:09.242Z,19.80
2017-08-19T08:10:35.362Z,19.80
2017-08-19T08:13:01.440Z,19.80
2017-08-19T08:15:27.506Z,19.80
2017-08-19T08:17:53.652Z,19.90
2017-08-19T08:20:19.740Z,19.90
2017-08-19T08:22:46.579Z,20.00
2017-08-19T08:25:13.407Z,19.80
2017-08-19T08:27:39.572Z,19.80
2017-08-19T08:30:05.708Z,19.90
2017-08-19T08:32:31.763Z,19.90
2017-08-19T08:34:57.956Z,19.90
2017-08-19T08:37:24.118Z,20.00
2017-08-19T08:39:50.342Z,20.20
2017-08-19T08:42:16.452Z,20.20
2017-08-19T08:44:42.566Z,20.40
2017-08-19T08:47:08.634Z,20.30
2017-08-19T08:49:34.764Z,20.20
2017-08-19T08:53:13.683Z,20.10
2017-08-19T09:00:56.350Z,21.60
2017-08-19T09:03:22.410Z,21.20
2017-08-19T09:05:48.568Z,20.60
2017-08-19T09:08:14.729Z,20.70
2017-08-19T09:10:40.835Z,20.70
2017-08-19T09:13:06.980Z,20.80
2017-08-19T09:15:33.193Z,21.30
2017-08-19T09:17:59.298Z,21.50
2017-08-19T09:20:25.491Z,21.70
2017-08-19T09:22:51.657Z,21.50
2017-08-19T09:25:17.801Z,21.90
2017-08-19T09:27:43.891Z,22.00
2017-08-19T09:30:10.029Z,21.60
2017-08-19T09:32:36.143Z,21.40
2017-08-19T09:35:02.221Z,21.60
2017-08-19T09:37:28.317Z,22.40
2017-08-19T09:39:54.470Z,22.30
2017-08-19T09:42:20.605Z,22.90
2017-08-19T09:44:46.693Z,23.40
2017-08-19T09:47:12.777Z,23.10
2017-08-19T09:49:39.639Z,22.40
2017-08-19T09:52:05.774Z,22.40
2017-08-19T09:54:31.852Z,21.80
2017-08-19T09:56:58.693Z,21.70
2017-08-19T09:59:24.784Z,21.60
2017-08-19T10:01:50.947Z,21.80
2017-08-19T10:04:17.019Z,21.50
2017-08-19T10:06:43.200Z,21.50
2017-08-19T10:12:19.578Z,22.60
2017-08-19T10:14:45.711Z,22.60
2017-08-19T10:17:12.592Z,22.90
2017-08-19T10:19:38.670Z,22.90
2017-08-19T10:22:04.860Z,23.10
2017-08-19T10:24:30.981Z,23.20
2017-08-19T10:26:57.088Z,23.30
2017-08-19T10:29:23.944Z,23.80
2017-08-19T10:31:50.024Z,23.70
2017-08-19T10:34:16.149Z,24.00
2017-08-19T10:36:42.250Z,24.10
2017-08-19T10:39:09.354Z,24.10
2017-08-19T10:41:36.225Z,24.30
2017-08-19T10:44:02.318Z,24.30
2017-08-19T10:46:29.161Z,23.90
2017-08-19T10:48:56.025Z,23.60
2017-08-19T10:51:22.109Z,23.60
2017-08-19T10:53:48.184Z,23.50
2017-08-19T10:56:14.276Z,23.20
2017-08-19T10:58:41.121Z,23.10
2017-08-19T11:01:07.985Z,23.20
2017-08-19T11:03:34.136Z,23.20
2017-08-19T11:06:00.244Z,23.60
2017-08-19T11:08:26.351Z,23.40
2017-08-19T11:10:53.221Z,23.80
2017-08-19T11:13:19.384Z,23.80
2017-08-19T11:15:45.463Z,24.10
2017-08-19T11:18:11.594Z,24.10
2017-08-19T11:20:37.717Z,23.90
2017-08-19T11:23:03.835Z,23.70
2017-08-19T11:25:29.920Z,23.30
2017-08-19T11:27:56.057Z,23.30
2017-08-19T11:30:22.162Z,24.10
2017-08-19T11:32:48.260Z,23.40
2017-08-19T11:35:14.360Z,23.00
2017-08-19T11:37:41.221Z,24.00
2017-08-19T11:40:07.370Z,23.90
2017-08-19T11:42:33.468Z,23.80
2017-08-19T11:44:59.577Z,23.10
2017-08-19T11:47:26.426Z,23.10
2017-08-19T11:49:53.288Z,22.90
2017-08-19T11:52:19.443Z,22.90
2017-08-19T11:54:45.575Z,23.00
2017-08-19T11:57:11.822Z,22.80
2017-08-19T11:59:38.060Z,22.60
2017-08-19T12:02:04.165Z,22.60
2017-08-19T12:04:30.268Z,23.10
2017-08-19T12:06:56.467Z,22.80
2017-08-19T12:09:22.563Z,22.40
2017-08-19T12:11:48.660Z,23.10
2017-08-19T12:14:14.826Z,23.90
2017-08-19T12:16:41.654Z,23.30
2017-08-19T12:19:08.514Z,23.20
2017-08-19T12:21:34.885Z,24.00
2017-08-19T12:24:01.032Z,25.20
2017-08-19T12:26:28.403Z,26.40
2017-08-19T12:28:54.564Z,27.40
2017-08-19T12:31:21.587Z,31.60
2017-08-19T12:33:47.676Z,31.50
2017-08-19T12:36:13.778Z,31.80
2017-08-19T12:38:39.897Z,30.70
2017-08-19T12:41:06.048Z,29.90
2017-08-19T12:43:32.176Z,28.20
2017-08-19T12:45:58.293Z,26.90
2017-08-19T12:48:24.398Z,27.30
2017-08-19T12:50:51.237Z,26.60
2017-08-19T12:53:18.122Z,27.10
2017-08-19T12:55:44.212Z,27.10
2017-08-19T12:58:11.060Z,29.50
2017-08-19T13:00:37.191Z,29.50
2017-08-19T13:03:03.290Z,30.60
2017-08-19T13:05:29.379Z,31.60
2017-08-19T13:07:55.535Z,29.70
2017-08-19T13:10:21.661Z,29.40
2017-08-19T13:12:47.759Z,28.70
2017-08-19T13:15:13.869Z,28.00
2017-08-19T13:17:39.942Z,29.40
2017-08-19T13:20:06.789Z,27.70
2017-08-19T13:22:33.651Z,28.50
2017-08-19T13:24:59.730Z,28.50
2017-08-19T13:27:25.845Z,27.20
2017-08-19T13:29:51.949Z,29.90
2017-08-19T13:32:18.577Z,30.50
2017-08-19T13:34:44.901Z,31.10
2017-08-19T13:37:11.027Z,30.40
2017-08-19T13:39:37.223Z,31.30
2017-08-19T13:42:03.469Z,30.70
2017-08-19T13:44:30.425Z,33.80
2017-08-19T13:46:56.493Z,33.70
2017-08-19T13:49:22.619Z,32.00
2017-08-19T13:51:48.732Z,32.50
2017-08-19T13:54:14.823Z,32.50
2017-08-19T13:56:41.713Z,29.80
2017-08-19T13:59:07.793Z,29.70
2017-08-19T14:01:34.652Z,33.90
2017-08-19T14:04:00.736Z,33.90
2017-08-19T14:06:26.801Z,32.90
2017-08-19T14:08:53.036Z,33.40
2017-08-19T14:11:19.175Z,33.20
2017-08-19T14:13:45.303Z,33.20
2017-08-19T14:16:11.384Z,33.40
2017-08-19T14:18:38.229Z,32.60
2017-08-19T14:21:05.070Z,34.10
2017-08-19T14:23:31.130Z,34.10
2017-08-19T14:25:57.219Z,36.10
2017-08-19T14:28:23.426Z,33.60
2017-08-19T14:30:49.748Z,33.10
2017-08-19T14:33:15.832Z,33.70
2017-08-19T14:35:41.984Z,32.50
2017-08-19T14:38:08.137Z,32.80
2017-08-19T14:40:34.223Z,30.70
2017-08-19T14:43:00.352Z,30.90
2017-08-19T14:45:26.545Z,31.40
2017-08-19T14:47:53.385Z,31.50
2017-08-19T14:50:20.220Z,30.40
2017-08-19T14:52:46.433Z,30.30
2017-08-19T14:55:12.515Z,30.70
2017-08-19T14:57:38.679Z,30.30
2017-08-19T15:00:04.846Z,30.30
2017-08-19T15:02:31.724Z,31.90
2017-08-19T15:04:57.881Z,31.90
2017-08-19T15:07:24.011Z,33.50
2017-08-19T15:09:50.139Z,34.50
2017-08-19T15:12:16.234Z,33.20
2017-08-19T15:14:42.633Z,34.10
2017-08-19T15:17:08.776Z,31.60
2017-08-19T15:19:34.862Z,32.40
2017-08-19T15:22:00.970Z,32.60
2017-08-19T15:24:27.511Z,31.70
2017-08-19T15:26:53.954Z,33.60
2017-08-19T15:29:20.788Z,31.40
2017-08-19T15:31:46.920Z,31.30
2017-08-19T15:34:13.018Z,29.30
2017-08-19T15:36:39.150Z,29.90
2017-08-19T15:39:05.269Z,30.10
2017-08-19T15:41:31.382Z,30.10
2017-08-19T15:43:57.492Z,28.90
2017-08-19T15:46:23.569Z,30.60
2017-08-19T15:48:49.679Z,31.00
2017-08-19T15:51:15.804Z,31.60
2017-08-19T15:53:41.923Z,32.80
2017-08-19T15:56:07.996Z,33.90
2017-08-19T15:58:34.838Z,33.00
2017-08-19T16:01:01.406Z,33.00
2017-08-19T16:03:27.483Z,30.50
2017-08-19T16:05:53.556Z,29.20
2017-08-19T16:08:19.660Z,29.40
2017-08-19T16:10:45.797Z,29.90
2017-08-19T16:13:12.610Z,30.20
2017-08-19T16:15:39.017Z,30.20
2017-08-19T16:18:05.088Z,28.60
2017-08-19T16:20:31.964Z,29.20
2017-08-19T16:22:58.104Z,29.20
2017-08-19T16:25:24.218Z,30.50
2017-08-19T16:27:50.344Z,31.20
2017-08-19T16:30:16.467Z,30.30
2017-08-19T16:32:42.569Z,31.40
2017-08-19T16:35:09.262Z,28.50
2017-08-19T16:37:35.346Z,29.40
2017-08-19T16:40:01.560Z,30.70
2017-08-19T16:42:27.715Z,30.40
2017-08-19T16:44:53.794Z,30.90
2017-08-19T16:47:20.668Z,27.60
2017-08-19T16:49:46.781Z,27.60
2017-08-19T16:52:12.891Z,28.20
2017-08-19T16:54:38.982Z,28.70
2017-08-19T16:57:05.078Z,29.30
2017-08-19T16:59:31.151Z,27.10
2017-08-19T17:01:57.294Z,25.70
2017-08-19T17:04:23.382Z,25.30
2017-08-19T17:06:49.480Z,26.40
2017-08-19T17:09:15.614Z,27.80
2017-08-19T17:11:41.738Z,29.70
2017-08-19T17:14:07.840Z,30.50
2017-08-19T17:16:34.666Z,29.90
2017-08-19T17:19:01.510Z,27.90
2017-08-19T17:21:27.616Z,27.80
2017-08-19T17:23:53.699Z,26.60
2017-08-19T17:26:19.799Z,25.90
2017-08-19T17:28:46.625Z,26.90
2017-08-19T17:31:12.715Z,26.80
2017-08-19T17:33:38.807Z,26.00
2017-08-19T17:36:04.967Z,25.20
2017-08-19T17:38:31.059Z,24.20
2017-08-19T17:40:57.908Z,23.20
2017-08-19T17:43:24.095Z,23.10
2017-08-19T17:45:50.191Z,22.90
2017-08-19T17:48:16.320Z,22.60
2017-08-19T17:50:42.426Z,22.40
2017-08-19T17:53:08.512Z,22.30
2017-08-19T17:55:34.600Z,22.10
2017-08-19T17:58:00.731Z,21.70
2017-08-19T18:00:26.809Z,21.40
2017-08-19T18:02:53.676Z,20.90
2017-08-19T18:05:19.760Z,20.90
2017-08-19T18:07:45.845Z,20.80
2017-08-19T18:10:11.946Z,20.50
2017-08-19T18:12:38.049Z,20.40
2017-08-19T18:15:04.893Z,20.20
2017-08-19T18:17:31.737Z,20.20
2017-08-19T18:19:58.606Z,20.30
2017-08-19T18:22:24.886Z,20.30
2017-08-19T18:24:51.102Z,20.20
2017-08-19T18:27:17.179Z,20.10
2017-08-19T18:29:43.305Z,20.00
2017-08-19T18:32:09.547Z,19.90
2017-08-19T18:34:35.635Z,19.70
2017-08-19T18:37:02.509Z,19.40
2017-08-19T18:39:28.569Z,19.40
2017-08-19T18:41:54.698Z,19.40
2017-08-19T18:44:20.826Z,19.20
2017-08-19T18:46:46.935Z,19.10
2017-08-19T18:49:13.047Z,19.10
2017-08-19T18:51:39.167Z,19.00
2017-08-19T18:54:05.284Z,19.00
2017-08-19T18:56:31.450Z,18.90
2017-08-19T18:58:57.688Z,18.80
2017-08-19T19:01:23.934Z,18.90
2017-08-19T19:03:49.994Z,18.80
2017-08-19T19:06:16.082Z,18.70
2017-08-19T19:08:42.280Z,18.60
2017-08-19T19:11:08.393Z,18.50
2017-08-19T19:13:34.514Z,18.30
2017-08-19T19:16:00.579Z,18.20
2017-08-19T19:18:26.725Z,18.10
2017-08-19T19:20:53.627Z,18.00
2017-08-19T19:23:19.753Z,18.00
2017-08-19T19:25:45.882Z,17.80
2017-08-19T19:28:11.956Z,17.80
2017-08-19T19:30:38.806Z,17.60
2017-08-19T19:33:05.608Z,17.60
2017-08-19T19:35:31.760Z,17.60
2017-08-19T19:37:57.855Z,17.50
2017-08-19T19:40:23.977Z,17.40
2017-08-19T19:42:50.139Z,17.30
2017-08-19T19:45:16.274Z,17.20
2017-08-19T19:47:43.099Z,17.00
2017-08-19T19:50:09.173Z,17.00
2017-08-19T19:52:35.276Z,17.00
2017-08-19T19:55:02.092Z,16.90
2017-08-19T19:57:28.214Z,16.90
2017-08-19T19:59:54.301Z,16.90
2017-08-19T20:02:20.414Z,16.80
2017-08-19T20:04:46.561Z,16.80
2017-08-19T20:07:12.684Z,16.70
2017-08-19T20:09:38.763Z,16.70
2017-08-19T20:12:05.629Z,16.60
2017-08-19T20:14:31.779Z,16.60
2017-08-19T20:16:57.887Z,16.50
2017-08-19T20:19:30.822Z,16.50
2017-08-19T20:21:57.299Z,16.40
2017-08-19T20:24:23.364Z,16.30
2017-08-19T20:26:50.175Z,16.40
2017-08-19T20:29:17.021Z,16.40
2017-08-19T20:31:43.118Z,16.50
2017-08-19T20:34:10.140Z,16.40
2017-08-19T20:36:36.295Z,16.50
2017-08-19T20:39:02.422Z,16.40
2017-08-19T20:41:29.343Z,16.30
2017-08-19T20:43:55.641Z,16.30
2017-08-19T20:46:23.021Z,16.30
2017-08-19T20:48:49.151Z,16.30
2017-08-19T20:51:15.837Z,16.40
2017-08-19T20:53:41.987Z,16.40
2017-08-19T20:56:08.093Z,16.50
2017-08-19T20:58:34.378Z,16.40
2017-08-19T21:01:01.289Z,16.40
2017-08-19T21:03:27.381Z,16.30
2017-08-19T21:05:54.301Z,16.30
2017-08-19T21:08:20.379Z,16.30
2017-08-19T21:10:46.500Z,16.30
2017-08-19T21:13:12.655Z,16.20
2017-08-19T21:15:39.979Z,16.10
2017-08-19T21:18:06.078Z,16.10
2017-08-19T21:20:32.921Z,16.00
2017-08-19T21:23:00.263Z,15.90
2017-08-19T21:25:26.360Z,15.80
2017-08-19T21:27:52.437Z,15.90
2017-08-19T21:30:19.270Z,16.00
2017-08-19T21:32:46.098Z,15.90
2017-08-19T21:35:12.178Z,15.90
2017-08-19T21:37:38.284Z,15.80
2017-08-19T21:40:04.450Z,15.80
2017-08-19T21:42:30.567Z,15.60
2017-08-19T21:44:56.708Z,15.40
2017-08-19T21:47:22.762Z,15.50
2017-08-19T21:49:48.989Z,15.50
2017-08-19T21:52:15.798Z,15.90
2017-08-19T21:54:41.953Z,15.80
2017-08-19T21:57:08.065Z,15.80
2017-08-19T21:59:34.134Z,15.80
2017-08-19T22:02:00.238Z,15.90
2017-08-19T22:04:27.178Z,16.20
2017-08-19T22:06:53.313Z,16.20
2017-08-19T22:09:19.494Z,16.30
2017-08-19T22:11:45.648Z,16.30
2017-08-19T22:14:11.738Z,16.20
2017-08-19T22:16:37.840Z,16.10
2017-08-19T22:19:04.043Z,16.00
2017-08-19T22:21:31.715Z,15.90
2017-08-19T22:23:58.546Z,15.80
2017-08-19T22:26:24.642Z,15.80
2017-08-19T22:28:50.745Z,15.70
2017-08-19T22:31:16.815Z,15.70
2017-08-19T22:33:42.914Z,15.70
2017-08-19T22:36:08.969Z,15.60
2017-08-19T22:38:35.083Z,15.70
2017-08-19T22:41:01.147Z,15.70
2017-08-19T22:43:27.255Z,15.70
2017-08-19T22:45:54.108Z,15.60
2017-08-19T22:48:20.924Z,15.70
2017-08-19T22:50:47.050Z,15.70
2017-08-19T22:53:13.185Z,15.80
2017-08-19T22:55:39.264Z,15.90
2017-08-19T22:58:05.339Z,16.00
2017-08-19T23:00:31.439Z,16.10
2017-08-19T23:02:57.528Z,16.10
2017-08-19T23:05:23.575Z,16.10
2017-08-19T23:07:49.640Z,16.10
2017-08-19T23:10:15.818Z,16.10
2017-08-19T23:12:41.931Z,16.10
2017-08-19T23:15:08.021Z,16.10
2017-08-19T23:17:34.149Z,16.00
2017-08-19T23:20:01.081Z,15.70
2017-08-19T23:22:27.150Z,15.60
2017-08-19T23:24:53.255Z,15.50
2017-08-19T23:27:20.067Z,15.60
2017-08-19T23:29:46.167Z,15.60
2017-08-19T23:32:12.275Z,15.60
2017-08-19T23:34:38.329Z,15.60
2017-08-19T23:37:04.460Z,15.60
2017-08-19T23:39:30.568Z,15.60
2017-08-19T23:41:56.755Z,15.60
2017-08-19T23:44:23.580Z,15.60
2017-08-19T23:46:50.985Z,15.60
2017-08-19T23:49:17.067Z,15.60
2017-08-19T23:51:43.868Z,15.30
2017-08-19T23:54:09.988Z,15.30
2017-08-19T23:56:36.113Z,15.30
2017-08-19T23:59:02.446Z,15.20
